Time;durP1;ratioP1;P1;durP2;ratioP2;P2;SDS_P1;SDS_P2;PMS_P1;PMS_P2;Temp;Humidity;BMP_temperature;BMP_pressure;BME280_temperature;BME280_humidity;BME280_pressure;Samples;Min_cycle;Max_cycle;Signal;HPM_P1;HPM_P2
2024/01/17 00:00:37;;;;;;;288.58;122.50;;;-1.40;99.90;;;;;;5096895;28;20076;-54
2024/01/17 00:03:03;;;;;;;283.98;122.53;;;-1.40;99.90;;;;;;5099477;28;20469;-54
2024/01/17 00:05:29;;;;;;;311.20;137.20;;;-1.50;99.90;;;;;;5099091;28;20028;-54
2024/01/17 00:07:55;;;;;;;309.10;137.98;;;-1.60;99.90;;;;;;5098907;28;20032;-54
2024/01/17 00:10:20;;;;;;;309.73;136.88;;;-1.60;99.90;;;;;;5099333;28;20073;-54
2024/01/17 00:12:46;;;;;;;293.13;128.60;;;-1.70;99.90;;;;;;5099218;28;20028;-54
2024/01/17 00:15:12;;;;;;;267.00;110.38;;;-1.60;99.90;;;;;;5099052;28;20056;-54
2024/01/17 00:17:38;;;;;;;403.38;140.05;;;-1.60;99.90;;;;;;5098816;28;20058;-54
2024/01/17 00:20:04;;;;;;;542.67;183.70;;;-1.60;99.90;;;;;;5099073;28;20064;-54
2024/01/17 00:22:30;;;;;;;572.25;202.38;;;-1.60;99.90;;;;;;5098919;28;20474;-54
2024/01/17 00:24:56;;;;;;;487.42;175.82;;;-1.50;99.90;;;;;;5098896;28;20027;-54
2024/01/17 00:27:25;;;;;;;490.25;179.27;;;-1.40;99.90;;;;;;5098721;28;20028;-54
2024/01/17 00:29:57;;;;;;;512.08;187.18;;;-1.40;99.90;;;;;;5098876;28;20107;-54
2024/01/17 00:32:24;;;;;;;495.77;187.48;;;-1.30;99.90;;;;;;5098919;28;20028;-54
2024/01/17 00:34:49;;;;;;;488.45;193.85;;;-1.20;99.90;;;;;;5098716;28;20020;-54
2024/01/17 00:37:15;;;;;;;499.35;196.13;;;-1.20;99.90;;;;;;5098365;28;20394;-54
2024/01/17 00:39:41;;;;;;;446.20;178.35;;;-1.20;99.90;;;;;;5098636;28;20039;-54
2024/01/17 00:42:07;;;;;;;465.27;175.75;;;-1.10;99.90;;;;;;5098555;28;20105;-54
2024/01/17 00:44:33;;;;;;;433.30;167.27;;;-0.90;99.90;;;;;;5098585;28;20024;-54
2024/01/17 00:46:59;;;;;;;394.55;151.13;;;-0.90;99.90;;;;;;5098223;28;20098;-54
2024/01/17 00:49:25;;;;;;;318.73;130.23;;;-0.90;99.90;;;;;;5098416;28;20119;-54
2024/01/17 00:51:51;;;;;;;314.02;127.28;;;-1.00;99.90;;;;;;5098450;28;20040;-54
2024/01/17 00:54:17;;;;;;;405.23;158.10;;;-1.00;99.90;;;;;;5098441;28;20020;-54
2024/01/17 00:56:43;;;;;;;412.30;159.15;;;-1.00;99.90;;;;;;5098117;28;20052;-54
2024/01/17 00:59:09;;;;;;;407.30;166.18;;;-0.90;99.90;;;;;;5098294;28;20448;-54
2024/01/17 01:01:34;;;;;;;454.00;191.02;;;-1.00;99.90;;;;;;5098650;28;20031;-54
2024/01/17 01:04:01;;;;;;;449.52;191.77;;;-0.90;99.90;;;;;;5098187;28;20047;-54
2024/01/17 01:06:27;;;;;;;459.95;197.27;;;-0.80;99.90;;;;;;5097911;28;20090;-54
2024/01/17 01:08:54;;;;;;;451.42;189.55;;;-0.80;99.90;;;;;;5098032;28;20032;-54
2024/01/17 01:11:19;;;;;;;437.85;180.45;;;-0.70;99.90;;;;;;5097640;28;20028;-55
2024/01/17 01:13:45;;;;;;;429.80;173.45;;;-0.70;99.90;;;;;;5097519;28;20055;-54
2024/01/17 01:16:11;;;;;;;416.23;174.98;;;-0.70;99.90;;;;;;5097683;28;20031;-54
2024/01/17 01:18:37;;;;;;;401.20;165.60;;;-0.70;99.90;;;;;;5097656;28;20067;-54
2024/01/17 01:21:03;;;;;;;422.33;173.98;;;-0.60;99.90;;;;;;5098000;28;20034;-54
2024/01/17 01:23:30;;;;;;;359.15;151.60;;;-0.60;99.90;;;;;;5097737;28;20048;-54
2024/01/17 01:25:56;;;;;;;258.80;117.40;;;-0.80;99.90;;;;;;5097572;28;20039;-54
2024/01/17 01:28:22;;;;;;;248.88;114.32;;;-0.80;99.90;;;;;;5097702;28;20028;-54
2024/01/17 01:30:47;;;;;;;245.18;111.40;;;-1.00;99.90;;;;;;5097637;28;20040;-54
2024/01/17 01:33:14;;;;;;;246.25;113.40;;;-0.90;99.90;;;;;;5097797;28;20024;-54
2024/01/17 01:35:40;;;;;;;259.90;121.70;;;-0.90;99.90;;;;;;5097390;28;20379;-54
2024/01/17 01:38:05;;;;;;;301.15;129.77;;;-0.90;99.90;;;;;;5097432;28;20036;-54
2024/01/17 01:40:31;;;;;;;346.75;151.98;;;-1.10;99.90;;;;;;5097491;28;20035;-54
2024/01/17 01:43:00;;;;;;;349.73;151.27;;;-1.00;99.90;;;;;;5097509;28;20022;-54
2024/01/17 01:45:25;;;;;;;354.60;149.77;;;-0.90;99.90;;;;;;5097253;28;20024;-54
2024/01/17 01:47:52;;;;;;;376.88;156.73;;;-0.90;99.90;;;;;;5097210;28;20501;-54
2024/01/17 01:50:18;;;;;;;344.13;142.40;;;-0.80;99.90;;;;;;5097373;28;20028;-54
2024/01/17 01:52:49;;;;;;;348.20;145.10;;;-0.90;99.90;;;;;;5097286;28;20055;-54
2024/01/17 01:55:15;;;;;;;388.90;163.30;;;-0.90;99.90;;;;;;5097231;28;20056;-54
2024/01/17 01:57:50;;;;;;;350.92;148.00;;;-0.90;99.90;;;;;;5097113;28;20040;-54
2024/01/17 02:00:17;;;;;;;361.25;157.85;;;-0.90;99.90;;;;;;5096931;28;20406;-54
2024/01/17 02:02:44;;;;;;;348.88;150.02;;;-0.90;99.90;;;;;;5097159;28;20462;-54
2024/01/17 02:05:11;;;;;;;303.45;134.75;;;-0.90;99.90;;;;;;5097026;28;20020;-54
2024/01/17 02:07:37;;;;;;;312.67;136.45;;;-1.00;99.90;;;;;;5096530;28;20548;-54
2024/01/17 02:10:04;;;;;;;351.05;151.18;;;-1.00;99.90;;;;;;5096946;28;20124;-54
2024/01/17 02:12:31;;;;;;;324.40;143.27;;;-0.80;99.90;;;;;;5096813;28;20501;-54
2024/01/17 02:14:57;;;;;;;330.15;141.27;;;-0.90;99.90;;;;;;5096737;28;20135;-54
2024/01/17 02:17:23;;;;;;;304.15;129.23;;;-0.90;99.90;;;;;;5096475;28;20485;-54
2024/01/17 02:19:49;;;;;;;365.67;151.48;;;-0.90;99.90;;;;;;5096931;28;20399;-54
2024/01/17 02:22:15;;;;;;;305.95;135.15;;;-1.10;99.90;;;;;;5096753;28;20093;-54
2024/01/17 02:24:41;;;;;;;287.88;125.15;;;-1.10;99.90;;;;;;5096571;28;20024;-54
2024/01/17 02:27:07;;;;;;;276.30;119.38;;;-1.00;99.90;;;;;;5096345;28;20081;-54
2024/01/17 02:29:32;;;;;;;306.17;127.90;;;-1.00;99.90;;;;;;5095216;28;20085;-54
2024/01/17 02:31:59;;;;;;;269.35;115.68;;;-1.10;99.90;;;;;;5096510;28;20032;-54
2024/01/17 02:34:25;;;;;;;311.13;130.20;;;-1.10;99.90;;;;;;5096415;28;20081;-54
2024/01/17 02:36:50;;;;;;;283.80;117.30;;;-1.20;99.90;;;;;;5096169;28;20467;-54
2024/01/17 02:39:16;;;;;;;219.63;99.25;;;-1.20;99.90;;;;;;5096405;28;20040;-54
2024/01/17 02:41:43;;;;;;;266.48;113.57;;;-1.30;99.90;;;;;;5096410;28;20040;-54
2024/01/17 02:44:09;;;;;;;276.13;114.70;;;-1.20;99.90;;;;;;5096195;28;20055;-54
2024/01/17 02:46:36;;;;;;;281.70;123.07;;;-1.30;99.90;;;;;;5095885;28;20016;-54
2024/01/17 02:49:02;;;;;;;255.82;113.88;;;-1.30;99.90;;;;;;5096550;28;20032;-54
2024/01/17 02:51:28;;;;;;;270.60;117.95;;;-1.40;99.90;;;;;;5093338;28;20542;-54
2024/01/17 02:53:54;;;;;;;268.70;113.30;;;-1.40;99.90;;;;;;5096004;28;20040;-54
2024/01/17 02:56:20;;;;;;;236.45;106.40;;;-1.40;99.90;;;;;;5096168;28;20020;-54
2024/01/17 02:58:46;;;;;;;254.73;110.75;;;-1.40;99.90;;;;;;5095890;28;20028;-54
2024/01/17 03:01:15;;;;;;;266.25;115.93;;;-1.40;99.90;;;;;;5095666;28;20032;-54
2024/01/17 03:03:41;;;;;;;328.30;132.77;;;-1.40;99.90;;;;;;5096216;28;20024;-54
2024/01/17 03:06:07;;;;;;;300.13;128.38;;;-1.30;99.90;;;;;;5095910;28;20039;-54
2024/01/17 03:08:33;;;;;;;229.88;98.47;;;-1.40;99.90;;;;;;5095670;28;20024;-54
2024/01/17 03:10:59;;;;;;;195.95;87.43;;;-1.40;99.90;;;;;;5095974;28;20043;-54
2024/01/17 03:13:24;;;;;;;237.38;105.22;;;-1.40;99.90;;;;;;5095594;28;20478;-54
2024/01/17 03:15:50;;;;;;;260.95;115.68;;;-1.40;99.90;;;;;;5095824;28;20158;-54
2024/01/17 03:18:17;;;;;;;245.07;109.28;;;-1.50;99.90;;;;;;5095563;28;20044;-54
2024/01/17 03:20:43;;;;;;;241.73;106.90;;;-1.50;99.90;;;;;;5095523;28;20111;-54
2024/01/17 03:23:09;;;;;;;235.45;104.57;;;-1.60;99.90;;;;;;5095458;28;20426;-54
2024/01/17 03:25:35;;;;;;;240.98;106.32;;;-1.60;99.90;;;;;;5095646;28;20020;-54
2024/01/17 03:28:01;;;;;;;216.77;99.97;;;-1.70;99.90;;;;;;5095587;28;20028;-54
2024/01/17 03:30:26;;;;;;;220.90;98.57;;;-1.70;99.90;;;;;;5095489;28;20039;-54
2024/01/17 03:32:52;;;;;;;215.15;95.47;;;-1.70;99.90;;;;;;5095330;28;20036;-54
2024/01/17 03:35:18;;;;;;;196.60;88.78;;;-1.60;99.90;;;;;;5094315;28;20077;-54
2024/01/17 03:37:44;;;;;;;201.45;89.47;;;-1.60;99.90;;;;;;5095243;28;20115;-54
2024/01/17 03:40:11;;;;;;;235.90;102.68;;;-1.70;99.90;;;;;;5095490;28;20031;-54
2024/01/17 03:42:36;;;;;;;234.43;101.68;;;-1.60;99.90;;;;;;5095244;28;20059;-54
2024/01/17 03:45:03;;;;;;;218.07;96.72;;;-1.70;99.90;;;;;;5095467;28;20016;-54
2024/01/17 03:47:28;;;;;;;244.98;108.82;;;-1.60;99.90;;;;;;5095406;28;20028;-54
2024/01/17 03:49:54;;;;;;;227.07;99.55;;;-1.60;99.90;;;;;;5095389;28;20146;-54
2024/01/17 03:52:20;;;;;;;218.20;98.22;;;-1.60;99.90;;;;;;5095223;28;20081;-54
2024/01/17 03:54:46;;;;;;;227.63;99.03;;;-1.60;99.90;;;;;;5095385;28;20530;-54
2024/01/17 03:57:12;;;;;;;229.30;100.57;;;-1.50;99.90;;;;;;5095672;28;20024;-54
2024/01/17 03:59:42;;;;;;;233.80;100.57;;;-1.50;99.90;;;;;;5095595;28;20046;-54
2024/01/17 04:02:08;;;;;;;209.63;94.47;;;-1.50;99.90;;;;;;5095195;28;20020;-54
2024/01/17 04:04:33;;;;;;;209.75;92.93;;;-1.40;99.90;;;;;;5095434;28;20077;-54
2024/01/17 04:06:59;;;;;;;202.15;89.55;;;-1.40;99.90;;;;;;5095259;28;20355;-54
2024/01/17 04:09:25;;;;;;;208.43;91.88;;;-1.50;99.90;;;;;;5095059;28;20153;-54
2024/01/17 04:11:52;;;;;;;217.30;93.72;;;-1.50;99.90;;;;;;5095226;28;20111;-54
2024/01/17 04:14:18;;;;;;;230.27;98.82;;;-1.60;99.90;;;;;;5095511;28;20036;-54
2024/01/17 04:16:44;;;;;;;242.70;105.13;;;-1.70;99.90;;;;;;5095232;28;20495;-54
2024/01/17 04:19:09;;;;;;;227.75;103.15;;;-1.60;99.90;;;;;;5094923;28;20024;-54
2024/01/17 04:21:36;;;;;;;204.40;93.18;;;-1.50;99.90;;;;;;5095126;28;20046;-54
2024/01/17 04:24:02;;;;;;;215.70;98.50;;;-1.50;99.90;;;;;;5094965;28;20079;-54
2024/01/17 04:26:28;;;;;;;227.80;99.50;;;-1.50;99.90;;;;;;5095040;28;20021;-54
2024/01/17 04:28:54;;;;;;;233.52;107.95;;;-1.40;99.90;;;;;;5095150;28;20039;-54
2024/01/17 04:31:26;;;;;;;235.52;103.57;;;-1.50;99.90;;;;;;5094865;28;20028;-54
2024/01/17 04:33:53;;;;;;;205.57;98.22;;;-1.40;99.90;;;;;;5094982;28;20508;-54
2024/01/17 04:36:20;;;;;;;218.63;101.05;;;-1.40;99.90;;;;;;5094977;28;20028;-54
2024/01/17 04:38:46;;;;;;;210.02;98.85;;;-1.50;99.90;;;;;;5094782;28;20028;-54
2024/01/17 04:41:13;;;;;;;196.70;94.82;;;-1.50;99.90;;;;;;5093690;28;20070;-54
2024/01/17 04:43:40;;;;;;;211.45;99.20;;;-1.60;99.90;;;;;;5095034;28;20028;-54
2024/01/17 04:46:12;;;;;;;188.25;90.53;;;-1.80;99.90;;;;;;5094930;28;20032;-54
2024/01/17 04:48:39;;;;;;;176.75;83.65;;;-1.70;99.90;;;;;;5097938;28;20415;-54
2024/01/17 04:51:05;;;;;;;183.93;86.43;;;-1.80;99.90;;;;;;5098384;28;20020;-54
2024/01/17 04:53:37;;;;;;;182.55;85.45;;;-1.80;99.90;;;;;;5098279;28;20557;-54
2024/01/17 04:56:06;;;;;;;522.53;255.40;;;-1.80;99.90;;;;;;5098429;28;20028;-54
2024/01/17 04:58:32;;;;;;;236.45;113.97;;;-1.70;99.90;;;;;;5098048;28;20030;-54
2024/01/17 05:00:59;;;;;;;281.10;131.73;;;-1.70;99.90;;;;;;5098155;28;20032;-54
2024/01/17 05:03:25;;;;;;;235.63;115.70;;;-1.70;99.90;;;;;;5098113;28;20073;-54
2024/01/17 05:05:51;;;;;;;202.68;97.38;;;-1.70;99.90;;;;;;5098076;28;20028;-54
2024/01/17 05:08:17;;;;;;;226.63;106.85;;;-1.60;99.90;;;;;;5097873;28;20020;-54
2024/01/17 05:10:44;;;;;;;202.88;95.18;;;-1.60;99.90;;;;;;5098151;28;20470;-54
2024/01/17 05:13:11;;;;;;;214.75;103.47;;;-1.50;99.90;;;;;;5097782;28;20036;-54
2024/01/17 05:15:38;;;;;;;184.30;87.03;;;-1.40;99.90;;;;;;5098289;28;20490;-54
2024/01/17 05:18:05;;;;;;;201.30;94.22;;;-1.40;99.90;;;;;;5097726;28;20088;-54
2024/01/17 05:20:32;;;;;;;184.23;88.97;;;-1.40;99.90;;;;;;5097849;28;20036;-54
2024/01/17 05:22:58;;;;;;;217.65;105.07;;;-1.50;99.90;;;;;;5097671;28;20040;-54
2024/01/17 05:25:23;;;;;;;213.90;101.25;;;-1.40;99.90;;;;;;5097763;28;20025;-54
2024/01/17 05:27:52;;;;;;;244.73;118.30;;;-1.40;99.90;;;;;;5097704;28;20293;-54
2024/01/17 05:30:19;;;;;;;247.98;117.22;;;-1.40;99.90;;;;;;5097608;28;20390;-54
2024/01/17 05:32:45;;;;;;;217.13;106.00;;;-1.30;99.90;;;;;;5097295;28;20032;-54
2024/01/17 05:35:11;;;;;;;230.13;105.60;;;-1.40;99.90;;;;;;5097845;28;20045;-54
2024/01/17 05:37:41;;;;;;;235.57;119.30;;;-1.40;99.90;;;;;;5097591;28;20031;-54
2024/01/17 05:40:08;;;;;;;242.02;119.75;;;-1.30;99.90;;;;;;5097656;28;20560;-54
2024/01/17 05:42:34;;;;;;;243.63;117.43;;;-1.20;99.90;;;;;;5097322;28;20136;-54
2024/01/17 05:45:01;;;;;;;251.93;118.35;;;-1.20;99.90;;;;;;5097426;28;20047;-54
2024/01/17 05:47:27;;;;;;;293.80;135.75;;;-1.20;99.90;;;;;;5097215;28;20028;-54
2024/01/17 05:49:53;;;;;;;221.50;102.75;;;-1.20;99.90;;;;;;5097306;28;20428;-54
2024/01/17 05:52:19;;;;;;;203.40;96.47;;;-1.20;99.90;;;;;;5097092;28;20094;-54
2024/01/17 05:54:45;;;;;;;219.77;103.13;;;-1.10;99.90;;;;;;5097444;28;20028;-54
2024/01/17 05:57:10;;;;;;;261.60;120.05;;;-1.10;99.90;;;;;;5097107;28;20040;-54
2024/01/17 05:59:36;;;;;;;285.25;128.48;;;-0.90;99.90;;;;;;5096648;28;20080;-54
2024/01/17 06:02:02;;;;;;;292.65;136.05;;;-0.90;99.90;;;;;;5096838;28;20497;-54
2024/01/17 06:04:28;;;;;;;293.10;133.27;;;-0.80;99.90;;;;;;5097514;28;20031;-54
2024/01/17 06:06:54;;;;;;;342.05;152.07;;;-0.80;99.90;;;;;;5096804;28;20032;-54
2024/01/17 06:09:20;;;;;;;309.45;142.23;;;-0.80;99.90;;;;;;5096965;28;20058;-54
2024/01/17 06:11:46;;;;;;;299.58;136.10;;;-0.70;99.90;;;;;;5096771;28;20534;-54
2024/01/17 06:14:12;;;;;;;253.02;118.13;;;-0.70;99.90;;;;;;5096833;28;20040;-54
2024/01/17 06:16:38;;;;;;;212.48;99.53;;;-0.50;99.90;;;;;;5096702;28;20024;-54
2024/01/17 06:19:03;;;;;;;243.50;117.03;;;-0.50;99.90;;;;;;5096177;28;20390;-54
2024/01/17 06:21:29;;;;;;;231.13;103.07;;;-0.40;99.90;;;;;;5096454;28;20016;-54
2024/01/17 06:23:55;;;;;;;208.27;98.95;;;-0.40;99.90;;;;;;5095449;28;20493;-54
2024/01/17 06:26:22;;;;;;;201.65;91.32;;;-0.40;99.90;;;;;;5092159;28;20024;-54
2024/01/17 06:28:47;;;;;;;246.27;113.65;;;-0.20;99.90;;;;;;5096293;28;20465;-54
2024/01/17 06:31:31;;;;;;;228.50;104.68;;;-0.20;99.90;;;;;;5094938;28;20024;-54
2024/01/17 06:33:57;;;;;;;221.75;103.60;;;-0.20;99.90;;;;;;5094617;28;20028;-54
2024/01/17 06:36:24;;;;;;;223.98;103.75;;;-0.20;99.90;;;;;;5087883;28;20035;-54
2024/01/17 06:38:50;;;;;;;196.93;90.63;;;-0.20;99.90;;;;;;5075790;28;20033;-54
2024/01/17 06:41:17;;;;;;;217.20;102.60;;;-0.20;99.90;;;;;;5080721;28;20023;-54
2024/01/17 06:43:44;;;;;;;246.43;113.30;;;-0.10;99.90;;;;;;5093819;28;20521;-54
2024/01/17 06:46:10;;;;;;;220.45;104.05;;;-0.10;99.90;;;;;;5084613;28;20094;-54
2024/01/17 06:48:37;;;;;;;135.80;65.80;;;0.00;99.90;;;;;;5095816;28;20036;-54
2024/01/17 06:51:04;;;;;;;126.97;61.50;;;0.10;99.90;;;;;;5096288;28;20024;-54
2024/01/17 06:53:34;;;;;;;119.57;59.45;;;0.10;99.90;;;;;;5096302;28;20040;-54
2024/01/17 06:55:59;;;;;;;124.10;62.58;;;0.00;99.90;;;;;;5094519;28;20477;-54
2024/01/17 06:58:25;;;;;;;125.57;61.13;;;0.10;99.90;;;;;;5090535;28;20035;-54
2024/01/17 07:00:53;;;;;;;136.98;64.68;;;0.00;99.90;;;;;;5090610;28;20028;-54
2024/01/17 07:03:20;;;;;;;183.95;84.20;;;0.10;99.90;;;;;;5094280;28;20389;-54
2024/01/17 07:05:46;;;;;;;171.32;80.68;;;0.00;99.90;;;;;;5095880;28;20051;-54
2024/01/17 07:08:12;;;;;;;175.40;83.18;;;0.00;99.90;;;;;;5095854;28;20063;-54
2024/01/17 07:10:39;;;;;;;176.80;80.03;;;0.00;99.90;;;;;;5087817;28;20024;-54
2024/01/17 07:13:05;;;;;;;174.60;79.60;;;0.10;99.90;;;;;;5084228;28;20540;-54
2024/01/17 07:15:31;;;;;;;162.23;78.30;;;0.30;99.90;;;;;;5085620;28;20039;-54
2024/01/17 07:17:58;;;;;;;157.88;74.93;;;0.30;99.90;;;;;;5095313;28;20401;-54
2024/01/17 07:20:24;;;;;;;149.85;74.57;;;0.30;99.90;;;;;;5095578;28;20036;-54
2024/01/17 07:22:50;;;;;;;168.23;80.38;;;0.40;99.90;;;;;;5095615;28;20078;-54
2024/01/17 07:25:17;;;;;;;164.68;82.28;;;0.50;99.90;;;;;;5095374;28;20020;-54
2024/01/17 07:27:45;;;;;;;169.18;77.55;;;0.70;99.90;;;;;;5095504;28;20127;-54
2024/01/17 07:30:12;;;;;;;164.45;79.80;;;0.80;99.90;;;;;;5095565;28;20035;-54
2024/01/17 07:32:38;;;;;;;160.27;83.60;;;0.90;99.90;;;;;;5095189;28;20027;-54
2024/01/17 07:35:08;;;;;;;170.70;85.32;;;1.10;99.90;;;;;;5089003;28;20086;-54
2024/01/17 07:37:35;;;;;;;171.00;85.20;;;1.30;99.90;;;;;;5094964;28;20375;-54
2024/01/17 07:40:01;;;;;;;164.60;83.07;;;1.60;99.90;;;;;;5088965;28;20039;-54
2024/01/17 07:42:27;;;;;;;167.40;81.82;;;1.90;99.90;;;;;;5091530;28;20032;-54
2024/01/17 07:44:53;;;;;;;168.02;80.05;;;2.30;99.90;;;;;;5093816;28;20066;-54
2024/01/17 07:47:18;;;;;;;157.75;79.43;;;2.60;99.90;;;;;;5088128;28;20058;-54
2024/01/17 07:49:45;;;;;;;163.32;79.47;;;2.60;99.90;;;;;;5095785;28;20028;-54
2024/01/17 07:52:11;;;;;;;163.60;77.38;;;2.60;99.90;;;;;;5095742;28;20028;-54
2024/01/17 07:54:38;;;;;;;166.20;80.88;;;2.70;99.90;;;;;;5095347;28;20039;-54
2024/01/17 07:57:04;;;;;;;164.15;82.80;;;2.70;99.90;;;;;;5095590;28;20426;-54
2024/01/17 07:59:30;;;;;;;164.10;81.38;;;2.90;99.90;;;;;;5095585;28;20024;-54
2024/01/17 08:01:57;;;;;;;174.70;86.28;;;2.80;99.90;;;;;;5092414;28;20020;-54
2024/01/17 08:04:23;;;;;;;174.00;87.18;;;3.00;99.90;;;;;;5086738;28;20020;-54
2024/01/17 08:06:49;;;;;;;183.27;88.43;;;3.50;99.90;;;;;;5084210;28;20078;-54
2024/01/17 08:09:22;;;;;;;198.40;98.63;;;3.50;99.90;;;;;;5079070;28;20032;-54
2024/01/17 08:11:49;;;;;;;257.63;120.18;;;3.50;99.90;;;;;;5087927;28;20062;-54
2024/01/17 08:14:15;;;;;;;353.63;159.27;;;3.40;99.90;;;;;;5076784;28;20451;-54
2024/01/17 08:16:41;;;;;;;244.18;117.22;;;3.30;99.90;;;;;;5092666;28;20051;-54
2024/01/17 08:19:07;;;;;;;271.67;125.63;;;3.30;99.90;;;;;;5093712;28;20044;-54
2024/01/17 08:21:33;;;;;;;216.45;106.03;;;3.30;99.90;;;;;;5095774;28;20028;-54
2024/01/17 08:23:59;;;;;;;213.60;102.88;;;3.00;99.90;;;;;;5098569;28;20394;-54
2024/01/17 08:26:25;;;;;;;221.10;107.25;;;2.80;99.90;;;;;;5098769;28;20236;-54
2024/01/17 08:28:51;;;;;;;220.68;107.43;;;2.70;99.90;;;;;;5091181;28;20081;-54
2024/01/17 08:31:17;;;;;;;246.88;120.57;;;2.70;99.90;;;;;;5080625;28;20088;-54
2024/01/17 08:33:43;;;;;;;278.38;133.43;;;2.70;99.90;;;;;;5078128;28;20032;-54
2024/01/17 08:36:09;;;;;;;294.25;140.63;;;2.70;99.90;;;;;;5089158;28;20120;-54
2024/01/17 08:38:35;;;;;;;318.05;148.23;;;2.70;99.90;;;;;;5098039;28;20036;-54
2024/01/17 08:41:01;;;;;;;325.33;150.30;;;2.70;99.90;;;;;;5098614;28;20020;-54
2024/01/17 08:43:27;;;;;;;278.00;130.38;;;2.70;99.90;;;;;;5098152;28;20035;-54
2024/01/17 08:45:54;;;;;;;265.15;128.13;;;2.40;99.90;;;;;;5098173;28;20024;-55
2024/01/17 08:48:20;;;;;;;270.35;125.68;;;2.60;99.90;;;;;;5097991;28;20028;-55
2024/01/17 08:50:45;;;;;;;270.88;128.52;;;2.60;99.90;;;;;;5098334;28;20028;-55
2024/01/17 08:53:11;;;;;;;262.33;124.32;;;2.60;99.90;;;;;;5098139;28;20048;-54
2024/01/17 08:55:37;;;;;;;237.85;116.30;;;2.60;99.90;;;;;;5098376;28;20513;-54
2024/01/17 08:58:03;;;;;;;234.65;115.10;;;2.70;99.90;;;;;;5098381;28;20070;-54
2024/01/17 09:00:29;;;;;;;224.38;111.05;;;2.70;99.90;;;;;;5096378;28;20034;-56
2024/01/17 09:02:55;;;;;;;204.52;100.60;;;2.80;99.90;;;;;;5098132;28;20065;-54
2024/01/17 09:05:21;;;;;;;223.32;107.15;;;2.90;99.90;;;;;;5097898;28;20024;-55
2024/01/17 09:07:48;;;;;;;231.65;113.65;;;3.00;99.90;;;;;;5097541;28;20247;-54
2024/01/17 09:10:16;;;;;;;223.98;109.97;;;3.10;99.90;;;;;;5098046;28;20378;-55
2024/01/17 09:12:42;;;;;;;219.85;107.53;;;3.20;99.90;;;;;;5098102;28;20461;-55
2024/01/17 09:15:09;;;;;;;215.20;108.70;;;3.50;99.90;;;;;;5091781;28;20068;-54
2024/01/17 09:17:34;;;;;;;216.70;116.95;;;3.70;99.90;;;;;;5091756;28;20030;-55
2024/01/17 09:20:01;;;;;;;232.13;115.28;;;3.90;99.90;;;;;;5095521;28;20032;-55
2024/01/17 09:22:26;;;;;;;245.38;120.63;;;4.10;99.90;;;;;;5097606;28;20460;-55
2024/01/17 09:24:52;;;;;;;247.75;124.80;;;4.30;99.90;;;;;;5097600;28;20038;-55
2024/01/17 09:27:18;;;;;;;272.15;138.18;;;4.50;99.90;;;;;;5095079;28;20390;-55
2024/01/17 09:29:45;;;;;;;265.38;129.90;;;4.90;99.90;;;;;;5088472;28;20080;-54
2024/01/17 09:32:12;;;;;;;280.17;136.73;;;5.10;99.90;;;;;;5094072;28;20039;-55
2024/01/17 09:34:39;;;;;;;277.50;142.38;;;5.80;99.90;;;;;;5094810;28;20035;-55
2024/01/17 09:37:05;;;;;;;303.50;149.95;;;6.60;99.00;;;;;;5092814;28;20028;-55
2024/01/17 09:39:31;;;;;;;303.25;152.98;;;7.20;97.90;;;;;;5085898;28;20367;-55
2024/01/17 09:42:02;;;;;;;354.38;162.68;;;8.20;94.80;;;;;;5077087;28;20397;-55
2024/01/17 09:44:28;;;;;;;339.75;164.70;;;8.10;92.70;;;;;;5077049;28;20457;-55
2024/01/17 09:47:00;;;;;;;384.75;202.05;;;8.70;91.70;;;;;;5090282;28;20071;-55
2024/01/17 09:49:27;;;;;;;378.67;197.63;;;9.00;89.20;;;;;;5077080;28;20078;-55
2024/01/17 09:51:53;;;;;;;384.90;204.18;;;8.60;88.80;;;;;;5079707;28;20024;-55
2024/01/17 09:54:24;;;;;;;409.23;221.35;;;8.70;88.60;;;;;;5089828;28;20020;-55
2024/01/17 09:56:51;;;;;;;458.35;235.38;;;8.60;89.90;;;;;;5079064;28;20378;-55
2024/01/17 09:59:25;;;;;;;487.58;259.30;;;8.40;89.70;;;;;;5093031;28;20453;-55
2024/01/17 10:01:51;;;;;;;508.70;275.40;;;8.20;89.50;;;;;;5096946;28;20031;-55
2024/01/17 10:04:19;;;;;;;527.15;291.45;;;7.80;90.40;;;;;;5096945;28;20024;-55
2024/01/17 10:06:48;;;;;;;516.45;286.73;;;7.50;90.90;;;;;;5096797;28;20035;-55
2024/01/17 10:09:15;;;;;;;534.33;301.02;;;7.40;91.30;;;;;;5096751;28;20024;-55
2024/01/17 10:11:40;;;;;;;526.03;296.20;;;7.20;92.00;;;;;;5096699;28;20035;-55
2024/01/17 10:14:07;;;;;;;528.17;292.58;;;7.10;92.50;;;;;;5096578;28;20414;-55
2024/01/17 10:16:35;;;;;;;520.53;278.60;;;7.20;92.80;;;;;;5096647;28;20055;-55
2024/01/17 10:19:06;;;;;;;499.55;273.00;;;7.20;93.00;;;;;;5096366;28;20488;-55
2024/01/17 10:21:33;;;;;;;518.83;280.17;;;7.40;93.30;;;;;;5091982;28;20108;-55
2024/01/17 10:23:59;;;;;;;492.00;271.15;;;7.30;92.50;;;;;;5087202;28;20497;-55
2024/01/17 10:26:25;;;;;;;352.75;177.63;;;7.20;93.20;;;;;;5095863;28;20035;-55
2024/01/17 10:28:51;;;;;;;349.92;184.15;;;7.10;92.80;;;;;;5096674;28;20028;-55
2024/01/17 10:31:20;;;;;;;313.25;163.35;;;7.00;93.10;;;;;;5096653;28;20023;-55
2024/01/17 10:33:48;;;;;;;290.27;145.50;;;6.80;93.20;;;;;;5094152;28;20077;-55
2024/01/17 10:36:14;;;;;;;237.50;123.95;;;6.90;94.40;;;;;;5092737;28;20093;-55
2024/01/17 10:38:40;;;;;;;226.20;118.53;;;7.00;94.20;;;;;;5094106;28;20024;-55
2024/01/17 10:41:07;;;;;;;225.43;114.18;;;7.00;93.70;;;;;;5094733;28;20052;-55
2024/01/17 10:43:54;;;;;;;217.27;112.95;;;7.00;93.50;;;;;;5094942;28;20099;-55
2024/01/17 10:46:21;;;;;;;211.98;110.88;;;6.80;93.50;;;;;;5095203;28;20358;-55
2024/01/17 10:48:48;;;;;;;216.77;111.80;;;6.70;93.90;;;;;;5095231;28;20449;-55
2024/01/17 10:51:20;;;;;;;211.30;113.50;;;6.90;94.50;;;;;;5095792;28;20047;-55
2024/01/17 10:53:52;;;;;;;246.82;120.68;;;6.90;93.90;;;;;;5095906;28;20023;-55
2024/01/17 10:56:19;;;;;;;253.45;125.22;;;7.00;94.10;;;;;;5096192;28;20058;-55
2024/01/17 10:58:49;;;;;;;254.73;129.90;;;6.80;94.60;;;;;;5095819;28;20028;-55
2024/01/17 11:01:20;;;;;;;252.27;125.38;;;6.80;94.70;;;;;;5095870;28;20027;-55
2024/01/17 11:03:47;;;;;;;239.00;126.88;;;6.80;94.90;;;;;;5095771;28;20099;-55
2024/01/17 11:06:15;;;;;;;269.30;134.20;;;6.90;94.60;;;;;;5095872;28;20115;-55
2024/01/17 11:08:42;;;;;;;275.45;139.48;;;7.00;94.70;;;;;;5095982;28;20027;-55
2024/01/17 11:11:09;;;;;;;262.30;137.52;;;7.10;94.80;;;;;;5095361;28;20446;-55
2024/01/17 11:13:37;;;;;;;291.55;152.73;;;7.30;94.80;;;;;;5095607;28;20020;-55
2024/01/17 11:16:05;;;;;;;313.30;163.10;;;7.30;94.90;;;;;;5095730;28;20028;-55
2024/01/17 11:18:36;;;;;;;341.70;178.07;;;7.40;95.00;;;;;;5095555;28;20143;-55
2024/01/17 11:21:04;;;;;;;361.75;198.70;;;7.40;94.50;;;;;;5095671;28;20032;-55
2024/01/17 11:23:45;;;;;;;503.20;282.52;;;7.40;95.00;;;;;;5095655;28;20172;-55
2024/01/17 11:26:33;;;;;;;475.40;261.05;;;7.40;95.20;;;;;;5095172;28;20020;-55
2024/01/17 11:29:14;;;;;;;457.77;264.70;;;7.30;95.30;;;;;;5095447;28;20028;-55
2024/01/17 11:31:51;;;;;;;;;;;7.30;95.60;;;;;;5096065;28;20058;-55
2024/01/17 11:34:17;;;;;;;551.03;317.95;;;7.40;95.90;;;;;;5095662;28;19934;-55
2024/01/17 11:36:45;;;;;;;565.65;334.40;;;7.50;96.10;;;;;;5095264;28;20493;-55
2024/01/17 11:39:16;;;;;;;578.58;331.15;;;7.60;95.80;;;;;;5095443;28;20036;-55
2024/01/17 11:41:42;;;;;;;;;;;7.60;95.80;;;;;;5096068;28;20024;-55
2024/01/17 11:44:11;;;;;;;544.65;313.85;;;7.60;95.70;;;;;;5093857;28;20224;-55
2024/01/17 11:46:38;;;;;;;542.28;322.38;;;7.90;96.40;;;;;;5095370;28;20107;-55
2024/01/17 11:49:05;;;;;;;537.67;322.33;;;7.80;96.50;;;;;;5095311;28;20466;-55
2024/01/17 11:51:33;;;;;;;573.85;346.55;;;7.90;96.20;;;;;;5095163;28;20442;-55
2024/01/17 11:54:02;;;;;;;585.83;354.02;;;8.10;96.40;;;;;;5095143;28;20036;-55
2024/01/17 11:56:29;;;;;;;595.85;358.52;;;8.10;96.10;;;;;;5096661;28;20028;-55
2024/01/17 11:59:09;;;;;;;598.15;342.90;;;8.30;96.20;;;;;;5098894;28;20031;-55
2024/01/17 12:01:35;;;;;;;578.00;342.27;;;8.30;96.20;;;;;;5098663;28;20032;-55
2024/01/17 12:04:13;;;;;;;592.53;346.13;;;8.40;95.90;;;;;;5099518;28;20080;-55
2024/01/17 12:06:40;;;;;;;619.95;363.75;;;8.40;96.40;;;;;;5099503;28;20065;-55
2024/01/17 12:09:08;;;;;;;671.17;372.40;;;8.50;97.00;;;;;;5099736;28;20027;-55
2024/01/17 12:11:34;;;;;;;657.47;381.63;;;8.70;97.10;;;;;;5099187;28;20367;-56
2024/01/17 12:14:01;;;;;;;649.85;377.80;;;8.90;96.60;;;;;;5099024;28;20028;-55